Wilmington, North Carolina
Current Conditions -  °F | °C
As of 9:24 PM on Sunday 21 Dec 2014 (Local Time) from KILM Reporting Station
Light Rain Light Rain  
Wind Chill: 39°   Ceiling: 4900
Heat Index: 44°   Visibility: 7mi
Dew Point: 41°   Wind: 9mph
Humidity: 89%   Direction: 30°NNE
Pressure: 30.19"   Gusts: NA
Location:  34.24°N, 77.94°W
Report Text: KILM 220224Z 03008KT 7SM -RA SCT021 OVC049 07/05 A3019 RMK AO2 P0001 T00670050
Loading
Personal Weather Stations






























Interactive Weather Map New forecast layout! Learn more

10-Day Weather Forecast

Advertisements
Track Severe Weather on mobile